Home > Products > Valid Products > TAF

000
FTUS42 KCHS 280500
TAFSAV
TAF
KSAV 280533Z 2806/2906 23008KT P6SM SCT200
     FM281400 26011KT P6SM FEW040 SCT200
     FM281800 27014G20KT P6SM SCT050
     FM282200 25013G19KT P6SM VCTS BKN050CB
     FM290300 26007KT P6SM BKN080=



000
FTUS42 KCHS 280500
TAFCHS
TAF
KCHS 280533Z 2806/2906 24007KT P6SM BKN200
     FM281400 25012G17KT P6SM FEW040 SCT200
     FM281800 26016G23KT P6SM SCT050
     FM282100 24016G23KT P6SM VCTS BKN050CB
     FM290200 26008KT P6SM BKN080=



000
FTUS42 KCHS 272300
TAFSAV
TAF
KSAV 272340Z 2800/2824 24008KT P6SM SCT200
     FM281400 26012G18KT P6SM FEW040 SCT200
     FM282100 25010G17KT P6SM VCTS BKN050CB=



000
FTUS42 KCHS 272300
TAFCHS
TAF
KCHS 272340Z 2800/2824 24008KT P6SM BKN200
     FM281400 26013G19KT P6SM FEW040 SCT200
     FM281800 25016G23KT P6SM SCT050 BKN200
     FM282100 24015G22KT P6SM VCTS BKN050CB=



000
FTUS42 KCHS 271700
TAFSAV
TAF
KSAV 271734Z 2718/2818 26010G15KT P6SM FEW050 SCT200
     FM280000 21009KT P6SM SCT200
     FM281400 25012G18KT P6SM FEW050 SCT200=



000
FTUS42 KCHS 271700
TAFCHS
TAF
KCHS 271734Z 2718/2818 25012G18KT P6SM FEW050 FEW200
     FM280000 23010KT P6SM SCT200
     FM281400 26015G20KT P6SM FEW050 SCT200=



000
FTUS42 KCHS 271100
TAFSAV
TAF
KSAV 271123Z 2712/2812 26009KT P6SM FEW035 SCT250
     FM271900 25010G15KT P6SM FEW050 SCT250
     FM280000 21009KT P6SM SCT250=



000
FTUS42 KCHS 271100
TAFCHS
TAF
KCHS 271123Z 2712/2812 25009KT P6SM FEW035 SCT250
     FM271900 23012G18KT P6SM FEW050 SCT250
     FM280000 22010KT P6SM SCT250=



000
FTUS42 KCHS 270500
TAFCHS
TAF
KCHS 270520Z 2706/2806 23003KT P6SM FEW250
     FM271300 25009KT P6SM FEW035
     FM272000 22012G18KT P6SM FEW050 SCT250
     FM280000 22010KT P6SM FEW250=



000
FTUS42 KCHS 270500
TAFSAV
TAF
KSAV 270520Z 2706/2806 VRB03KT P6SM SKC
     FM271300 26010KT P6SM FEW040
     FM280000 21007KT P6SM FEW250=



000
FTUS42 KCHS 262300
TAFSAV
TAF
KSAV 262334Z 2700/2724 VRB03KT P6SM SKC
     FM271300 26009KT P6SM FEW040=



000
FTUS42 KCHS 262300
TAFCHS
TAF
KCHS 262334Z 2700/2724 VRB03KT P6SM SKC
     FM271300 25009KT P6SM FEW035
     FM272000 22012KT P6SM FEW050 SCT250=



000
FTUS42 KCHS 261700
TAFSAV
TAF
KSAV 261736Z 2618/2718 26008KT P6SM SCT040 SCT150
     FM262100 20006KT P6SM FEW040
     FM270000 VRB03KT P6SM SKC
     FM271500 27008KT P6SM FEW035=



000
FTUS42 KCHS 261700
TAFCHS
TAF
KCHS 261736Z 2618/2718 28009KT P6SM VCTS SCT040CB
     FM262100 21007KT P6SM FEW040
     FM270000 VRB03KT P6SM SKC
     FM271400 25010KT P6SM FEW035=



000
FTUS42 KCHS 261100
TAFSAV
TAF
KSAV 261121Z 2612/2712 24008KT P6SM SCT040 SCT150
     FM270000 20004KT P6SM SKC=



000
FTUS42 KCHS 261100
TAFCHS
TAF
KCHS 261121Z 2612/2712 25007KT P6SM SCT035 BKN080
     FM261900 23010KT P6SM SCT050
     FM270000 21006KT P6SM SKC=



000
FTUS42 KCHS 260900 AAA
TAFCHS
TAF AMD
KCHS 260902Z 2609/2706 00000KT P6SM VCSH FEW015 BKN080
     FM261300 27007KT P6SM SCT035
     FM261900 22010G15KT P6SM SCT050
     FM270000 21006KT P6SM SKC=



000
FTUS42 KCHS 260500
TAFCHS
TAF
KCHS 260524Z 2606/2706 VRB03KT P6SM FEW015 BKN250
      TEMPO 2609/2612 3SM BR SCT008
     FM261300 27007KT P6SM SCT035
     FM261900 22010G15KT P6SM SCT050
     FM270000 21006KT P6SM SKC=



000
FTUS42 KCHS 260500
TAFSAV
TAF
KSAV 260524Z 2606/2706 VRB03KT P6SM FEW035 SCT080 BKN200
     FM261300 25008KT P6SM SCT040
     FM270000 20005KT P6SM SKC=



000
FTUS42 KCHS 260300 AAB
TAFSAV
TAF AMD
KSAV 260327Z 2603/2624 VRB05KT P6SM VCTS SCT030CB BKN090
      TEMPO 2603/2604 VRB15G25KT 5SM TSRA BKN018 OVC035CB
     FM260500 VRB03KT P6SM FEW035
     FM261300 27006KT P6SM SCT045
     FM262000 22008KT P6SM BKN045=



000
FTUS42 KCHS 260200 AAA
TAFSAV
TAF AMD
KSAV 260249Z 2603/2624 VRB05KT P6SM VCTS SCT040CB BKN090
      TEMPO 2603/2605 29015G25KT 3/4SM +TSRA SCT015 OVC035CB
     FM260500 VRB03KT P6SM FEW035
     FM261300 27006KT P6SM SCT045
     FM262000 22008KT P6SM BKN045=



000
FTUS42 KCHS 260200 AAA
TAFCHS
TAF AMD
KCHS 260205Z 2602/2624 VRB04KT P6SM VCTS SCT025CB BKN120
     FM260500 VRB03KT P6SM SCT025 BKN200
      TEMPO 2609/2612 5SM BR FEW012
     FM261300 27006KT P6SM SCT045
     FM261900 23009KT P6SM BKN045=



000
FTUS42 KCHS 252300
TAFCHS
TAF
KCHS 252339Z 2600/2624 VRB03KT P6SM VCSH BKN120
     FM260300 VRB03KT P6SM SKC
      TEMPO 2609/2612 5SM BR FEW012
     FM261300 27006KT P6SM SCT045
     FM261900 23009KT P6SM BKN045=



000
FTUS42 KCHS 252300
TAFSAV
TAF
KSAV 252339Z 2600/2624 20005KT P6SM VCTS SCT050CB BKN090
     FM260400 VRB03KT P6SM FEW035
     FM261300 27006KT P6SM SCT045
     FM262000 22008KT P6SM BKN045=



000
FTUS42 KCHS 252100 AAB
TAFCHS
TAF AMD
KCHS 252109Z 2521/2618 15010KT P6SM SCT030 BKN060
     FM260000 22005KT P6SM SCT050 SCT100
      TEMPO 2609/2612 5SM BR
     FM261300 27006KT P6SM SCT045 SCT250=



000
FTUS42 KCHS 251900 AAA
TAFCHS
TAF AMD
KCHS 251955Z 2520/2618 17010KT P6SM VCTS SCT030CB BKN060
      TEMPO 2520/2522 5SM TSRA BR BKN035CB
     FM260000 22005KT P6SM SCT050 SCT100
      TEMPO 2609/2612 5SM BR
     FM261300 27006KT P6SM SCT045 SCT250=



000
FTUS42 KCHS 251700
TAFCHS
TAF
KCHS 251739Z 2518/2618 22010KT P6SM VCTS SCT040CB
      TEMPO 2518/2520 VRB15G25KT 3SM TSRA BR BKN025CB
     FM260000 22005KT P6SM SCT050 SCT100
      TEMPO 2609/2612 5SM BR
     FM261300 27006KT P6SM SCT045 SCT250=



000
FTUS42 KCHS 251700
TAFSAV
TAF
KSAV 251739Z 2518/2618 26009KT P6SM SCT035
     FM252000 25009KT P6SM VCTS SCT035CB
     FM260000 22004KT P6SM SCT050 SCT100
     FM261300 27006KT P6SM SCT045 SCT250=



000
FTUS42 KCHS 251700 AAA
TAFCHS
TAF AMD
KCHS 251722Z 2517/2612 24009KT P6SM VCTS FEW035CB
      TEMPO 2517/2519 4SM TSRA BR BKN025CB
     FM260000 21005KT P6SM SCT050 BKN250=



000
FTUS42 KCHS 251100
TAFCHS
TAF
KCHS 251120Z 2512/2612 26009KT P6SM SCT030 SCT080
     FM251800 24009KT P6SM VCTS FEW035CB SCT045 BKN250
      TEMPO 2518/2522 4SM TSRA BR BKN025CB
     FM260000 21005KT P6SM SCT050 BKN250=



000
FTUS42 KCHS 251100
TAFSAV
TAF
KSAV 251120Z 2512/2612 26009KT P6SM SCT030
     FM252000 25009KT P6SM VCTS FEW035CB SCT045 BKN250
     FM260000 22004KT P6SM SCT050 BKN250=



    US Dept of Commerce
    National Oceanic and Atmospheric Administration
    National Weather Service
    1325 East West Highway
    Silver Spring, MD 20910
    Page Author: NWS Internet Services Team
Disclaimer
Information Quality
Credits
Glossary
Privacy Policy
Freedom of Information Act (FOIA)
About Us
Career Opportunities